createdAt,value
2022-08-26T00:01:41.442Z,78.73
2022-08-26T00:04:09.958Z,78.71
2022-08-26T00:06:36.752Z,78.51
2022-08-26T00:09:04.097Z,78.34
2022-08-26T00:11:34.748Z,78.27
2022-08-26T00:14:01.945Z,78.65
2022-08-26T00:16:29.007Z,78.25
2022-08-26T00:18:55.880Z,78.25
2022-08-26T00:21:22.478Z,79.27
2022-08-26T00:23:50.181Z,79.06
2022-08-26T00:26:17.016Z,79.52
2022-08-26T00:28:44.706Z,79.39
2022-08-26T00:31:11.546Z,79.32
2022-08-26T00:33:39.519Z,80.13
2022-08-26T00:36:07.018Z,80.00
2022-08-26T00:38:37.827Z,79.85
2022-08-26T00:41:05.829Z,79.80
2022-08-26T00:43:47.398Z,79.68
2022-08-26T00:46:24.848Z,80.25
2022-08-26T00:48:57.023Z,80.74
2022-08-26T00:51:29.519Z,80.65
2022-08-26T00:54:03.612Z,80.59
2022-08-26T00:56:40.055Z,80.69
2022-08-26T00:59:11.079Z,80.65
2022-08-26T01:01:40.685Z,80.36
2022-08-26T01:04:08.945Z,80.48
2022-08-26T01:06:35.711Z,80.77
2022-08-26T01:09:03.342Z,80.61
2022-08-26T01:11:31.481Z,80.38
2022-08-26T01:14:01.538Z,80.52
2022-08-26T01:16:30.215Z,80.54
2022-08-26T01:19:02.521Z,80.35
2022-08-26T01:22:02.116Z,80.28
2022-08-26T01:24:30.286Z,80.24
2022-08-26T01:27:02.767Z,80.37
2022-08-26T01:29:31.716Z,80.50
2022-08-26T01:31:59.031Z,80.12
2022-08-26T01:34:29.054Z,79.96
2022-08-26T01:37:06.922Z,80.52
2022-08-26T01:39:35.711Z,80.72
2022-08-26T01:42:05.118Z,81.13
2022-08-26T01:44:46.494Z,80.99
2022-08-26T01:47:16.908Z,80.72
2022-08-26T01:49:47.654Z,80.73
2022-08-26T01:52:23.780Z,81.03
2022-08-26T01:54:56.821Z,81.53
2022-08-26T01:57:24.649Z,81.73
2022-08-26T01:59:54.940Z,81.92
2022-08-26T02:02:23.002Z,81.85
2022-08-26T02:05:01.793Z,81.76
2022-08-26T02:07:31.162Z,81.69
2022-08-26T02:10:00.159Z,82.46
2022-08-26T02:12:26.961Z,82.36
2022-08-26T02:14:57.839Z,82.39
2022-08-26T02:17:39.248Z,82.26
2022-08-26T02:20:07.441Z,82.56
2022-08-26T02:22:42.725Z,82.40
2022-08-26T02:25:28.837Z,82.06
2022-08-26T02:27:56.243Z,81.96
2022-08-26T02:30:27.107Z,81.65
2022-08-26T02:32:57.738Z,82.31
2022-08-26T02:35:25.001Z,82.16
2022-08-26T02:37:52.514Z,81.71
2022-08-26T02:40:23.478Z,82.40
2022-08-26T02:42:53.049Z,82.73
2022-08-26T02:45:23.991Z,82.81
2022-08-26T02:47:51.560Z,82.21
2022-08-26T02:50:19.777Z,82.76
2022-08-26T02:52:47.707Z,83.27
2022-08-26T02:55:15.149Z,82.98
2022-08-26T02:57:41.750Z,83.11
2022-08-26T03:00:11.915Z,82.87
2022-08-26T03:02:39.597Z,82.63
2022-08-26T03:05:06.864Z,82.42
2022-08-26T03:07:33.874Z,82.21
2022-08-26T03:10:01.018Z,82.34
2022-08-26T03:12:28.388Z,82.97
2022-08-26T03:14:55.696Z,83.00
2022-08-26T03:17:23.207Z,82.93
2022-08-26T03:19:57.247Z,82.91
2022-08-26T03:22:24.948Z,83.23
2022-08-26T03:24:51.781Z,83.48
2022-08-26T03:27:18.484Z,83.27
2022-08-26T03:30:03.986Z,83.24
2022-08-26T03:32:31.326Z,83.40
2022-08-26T03:34:57.891Z,83.32
2022-08-26T03:37:25.019Z,83.84
2022-08-26T03:39:52.749Z,84.20
2022-08-26T03:42:21.488Z,84.35
2022-08-26T03:44:49.241Z,84.15
2022-08-26T03:47:15.876Z,84.51
2022-08-26T03:49:42.508Z,84.64
2022-08-26T03:52:09.959Z,84.56
2022-08-26T03:54:36.706Z,84.72
2022-08-26T03:57:03.502Z,84.30
2022-08-26T03:59:30.118Z,84.27
2022-08-26T04:01:57.582Z,83.99
2022-08-26T04:04:25.108Z,83.74
2022-08-26T04:06:56.765Z,83.59
2022-08-26T04:09:24.141Z,83.33
2022-08-26T04:11:51.777Z,83.09
2022-08-26T04:14:23.007Z,82.78
2022-08-26T04:16:51.238Z,82.56
2022-08-26T04:19:19.644Z,82.11
2022-08-26T04:21:48.434Z,81.56
2022-08-26T04:24:16.455Z,81.19
2022-08-26T04:26:44.619Z,80.55
2022-08-26T04:29:17.492Z,79.91
2022-08-26T04:31:44.627Z,79.64
2022-08-26T04:34:11.417Z,79.25
2022-08-26T04:36:40.959Z,78.56
2022-08-26T04:39:16.210Z,77.54
2022-08-26T04:41:43.900Z,76.46
2022-08-26T04:44:11.357Z,75.69
2022-08-26T04:46:39.915Z,75.46
2022-08-26T04:49:11.970Z,74.99
2022-08-26T04:51:39.086Z,74.46
2022-08-26T04:54:06.471Z,73.93
2022-08-26T04:56:38.546Z,72.99
2022-08-26T04:59:08.112Z,71.96
2022-08-26T05:01:49.700Z,70.91
2022-08-26T05:04:18.972Z,70.54
2022-08-26T05:06:47.667Z,70.54
2022-08-26T05:09:15.526Z,70.06
2022-08-26T05:11:42.207Z,70.11
2022-08-26T05:14:09.048Z,69.87
2022-08-26T05:16:35.613Z,67.02
2022-08-26T05:19:03.703Z,66.18
2022-08-26T05:21:31.201Z,65.43
2022-08-26T05:23:58.218Z,63.57
2022-08-26T05:26:28.011Z,62.64
2022-08-26T05:28:56.221Z,63.32
2022-08-26T05:31:26.903Z,63.96
2022-08-26T05:33:56.295Z,62.87
2022-08-26T05:36:27.001Z,61.77
2022-08-26T05:38:55.501Z,60.86
2022-08-26T05:41:27.810Z,61.11
2022-08-26T05:44:02.134Z,60.46
2022-08-26T05:46:29.225Z,59.73
2022-08-26T05:48:56.546Z,58.31
2022-08-26T05:51:26.113Z,57.43
2022-08-26T05:53:54.557Z,56.91
2022-08-26T05:56:27.108Z,55.31
2022-08-26T05:58:55.634Z,54.69
2022-08-26T06:01:25.343Z,52.40
2022-08-26T06:04:01.787Z,51.10
2022-08-26T06:06:31.746Z,50.75
2022-08-26T06:09:00.040Z,51.05
2022-08-26T06:11:31.840Z,51.18
2022-08-26T06:14:04.025Z,51.61
2022-08-26T06:16:34.250Z,50.97
2022-08-26T06:19:03.203Z,50.17
2022-08-26T06:21:32.670Z,49.56
2022-08-26T06:24:27.057Z,49.23
2022-08-26T06:26:56.652Z,47.71
2022-08-26T06:29:25.517Z,47.00
2022-08-26T06:31:54.110Z,47.00
2022-08-26T06:34:26.659Z,45.76
2022-08-26T06:36:59.059Z,45.35
2022-08-26T06:39:25.806Z,44.14
2022-08-26T06:41:52.471Z,44.12
2022-08-26T06:44:19.717Z,42.82
2022-08-26T06:46:50.315Z,42.76
2022-08-26T06:49:18.161Z,42.73
2022-08-26T06:51:52.545Z,41.22
2022-08-26T06:54:19.101Z,40.53
2022-08-26T06:56:45.831Z,40.17
2022-08-26T06:59:15.393Z,38.19
2022-08-26T07:01:46.052Z,37.92
2022-08-26T07:04:15.931Z,37.85
2022-08-26T07:06:50.089Z,36.66
2022-08-26T07:09:22.106Z,36.24
2022-08-26T07:11:50.603Z,36.55
2022-08-26T07:14:19.310Z,35.36
2022-08-26T07:16:51.679Z,35.15
2022-08-26T07:19:29.093Z,34.92
2022-08-26T07:22:01.198Z,34.01
2022-08-26T07:24:28.466Z,32.84
2022-08-26T07:27:05.509Z,32.45
2022-08-26T07:29:33.662Z,32.19
2022-08-26T07:32:00.298Z,31.69
2022-08-26T07:34:27.162Z,31.78
2022-08-26T07:36:53.957Z,31.71
2022-08-26T07:39:22.645Z,31.34
2022-08-26T07:41:49.521Z,29.67
2022-08-26T07:44:16.118Z,29.58
2022-08-26T07:46:44.267Z,29.66
2022-08-26T07:49:20.507Z,29.34
2022-08-26T07:51:49.262Z,29.19
2022-08-26T07:54:16.408Z,28.37
2022-08-26T07:56:44.276Z,28.70
2022-08-26T07:59:13.687Z,28.93
2022-08-26T08:01:41.198Z,28.48
2022-08-26T08:04:13.981Z,28.99
2022-08-26T08:06:41.287Z,28.15
2022-08-26T08:09:13.244Z,27.73
2022-08-26T08:11:40.860Z,27.66
2022-08-26T08:14:08.546Z,27.99
2022-08-26T08:16:41.516Z,28.38
2022-08-26T08:19:14.293Z,27.84
2022-08-26T08:21:42.253Z,27.20
2022-08-26T08:24:10.588Z,26.43
2022-08-26T08:26:37.482Z,26.01
2022-08-26T08:29:04.173Z,25.74
2022-08-26T08:34:19.509Z,23.78
2022-08-26T08:36:49.768Z,23.09
2022-08-26T08:39:20.439Z,22.10
2022-08-26T08:42:13.047Z,21.67
2022-08-26T08:44:43.792Z,21.42
2022-08-26T08:47:31.658Z,21.87
2022-08-26T08:50:03.076Z,21.77
2022-08-26T08:52:34.818Z,21.70
2022-08-26T08:55:04.969Z,21.65
2022-08-26T08:58:04.860Z,21.09
2022-08-26T09:00:41.359Z,20.62
2022-08-26T09:03:15.319Z,19.93
2022-08-26T09:05:48.564Z,20.42
2022-08-26T09:08:21.074Z,20.76
2022-08-26T09:11:00.348Z,20.86
2022-08-26T09:13:28.548Z,19.88
2022-08-26T09:16:13.675Z,19.77
2022-08-26T09:18:42.928Z,19.59
2022-08-26T09:21:16.176Z,19.45
2022-08-26T09:23:49.127Z,18.88
2022-08-26T09:26:29.086Z,19.25
2022-08-26T09:29:08.330Z,19.34
2022-08-26T09:31:38.473Z,18.99
2022-08-26T09:34:26.425Z,19.48
2022-08-26T09:36:59.924Z,19.51
2022-08-26T09:39:37.889Z,19.37
2022-08-26T09:42:32.509Z,18.88
2022-08-26T09:45:03.424Z,18.81
2022-08-26T09:47:34.409Z,19.03
2022-08-26T09:50:18.122Z,19.21
2022-08-26T09:52:45.270Z,19.04
2022-08-26T09:55:21.497Z,18.78
2022-08-26T09:57:54.292Z,19.01
2022-08-26T10:00:29.660Z,19.30
2022-08-26T10:03:10.256Z,18.97
2022-08-26T10:05:42.985Z,17.80
2022-08-26T10:08:31.450Z,17.56
2022-08-26T10:11:10.914Z,17.60
2022-08-26T10:13:42.335Z,17.57
2022-08-26T10:16:21.321Z,16.87
2022-08-26T10:19:12.771Z,17.89
2022-08-26T10:22:04.663Z,18.07
2022-08-26T10:24:37.865Z,18.03
2022-08-26T10:27:33.930Z,18.17
2022-08-26T10:30:07.412Z,17.99
2022-08-26T10:32:41.521Z,17.43
2022-08-26T10:35:11.935Z,17.43
2022-08-26T10:37:45.179Z,17.63
2022-08-26T10:40:23.037Z,17.88
2022-08-26T10:43:18.487Z,18.08
2022-08-26T10:45:58.612Z,18.00
2022-08-26T10:49:12.784Z,17.95
2022-08-26T10:51:51.391Z,18.07
2022-08-26T10:54:44.476Z,17.96
2022-08-26T10:57:29.554Z,18.32
2022-08-26T11:00:29.491Z,18.23
2022-08-26T11:03:40.890Z,18.32
2022-08-26T11:06:19.220Z,18.23
2022-08-26T11:08:56.546Z,18.22
2022-08-26T11:11:44.712Z,18.49
2022-08-26T11:14:38.557Z,18.22
2022-08-26T11:17:13.158Z,17.36
2022-08-26T11:19:59.346Z,16.72
2022-08-26T11:22:37.496Z,16.91
2022-08-26T11:25:24.385Z,16.88
2022-08-26T11:27:58.908Z,16.70
2022-08-26T11:30:33.833Z,16.67
2022-08-26T11:33:01.226Z,16.75
2022-08-26T11:35:33.904Z,17.37
2022-08-26T11:38:15.119Z,17.53
2022-08-26T11:40:42.525Z,17.17
2022-08-26T11:43:23.072Z,16.60
2022-08-26T11:46:06.487Z,16.87
2022-08-26T11:48:38.604Z,16.66
2022-08-26T11:51:23.020Z,16.56
2022-08-26T11:53:50.644Z,15.79
2022-08-26T11:56:26.535Z,15.87
2022-08-26T11:58:59.085Z,15.89
2022-08-26T12:01:32.849Z,15.63
2022-08-26T12:04:00.086Z,15.80
2022-08-26T12:06:37.629Z,16.14
2022-08-26T12:09:22.297Z,15.54
2022-08-26T12:11:49.019Z,15.36
2022-08-26T12:14:23.752Z,14.90
2022-08-26T12:16:53.478Z,14.71
2022-08-26T12:19:32.967Z,14.63
2022-08-26T12:22:09.748Z,13.97
2022-08-26T12:24:43.527Z,13.96
2022-08-26T12:27:22.086Z,13.86
2022-08-26T12:30:22.667Z,14.19
2022-08-26T12:32:57.993Z,14.12
2022-08-26T12:35:28.097Z,13.84
2022-08-26T12:37:55.389Z,14.02
2022-08-26T12:40:42.672Z,14.30
2022-08-26T12:43:13.909Z,13.87
2022-08-26T12:45:54.190Z,14.06
2022-08-26T12:48:31.501Z,13.89
2022-08-26T12:50:59.599Z,13.79
2022-08-26T12:53:32.691Z,14.05
2022-08-26T12:56:18.707Z,14.23
2022-08-26T12:59:00.300Z,14.49
2022-08-26T13:01:27.119Z,14.68
2022-08-26T13:03:53.795Z,14.75
2022-08-26T13:06:23.588Z,14.77
2022-08-26T13:08:58.648Z,14.59
2022-08-26T13:11:25.282Z,14.70
2022-08-26T13:14:18.353Z,14.92
2022-08-26T13:16:50.601Z,14.37
2022-08-26T13:19:21.473Z,14.19
2022-08-26T13:21:54.123Z,14.48
2022-08-26T13:24:35.214Z,14.97
2022-08-26T13:27:03.766Z,15.07
2022-08-26T13:29:30.347Z,15.06
2022-08-26T13:31:57.623Z,14.90
2022-08-26T13:34:25.157Z,14.75
2022-08-26T13:36:54.551Z,14.49
2022-08-26T13:39:22.197Z,14.40
2022-08-26T13:41:49.409Z,14.55
2022-08-26T13:44:15.966Z,14.66
2022-08-26T13:46:43.087Z,14.33
2022-08-26T13:49:11.049Z,14.68
2022-08-26T13:51:38.606Z,14.61
2022-08-26T13:54:05.720Z,14.65
2022-08-26T13:56:32.713Z,14.87
2022-08-26T13:59:00.767Z,14.84
2022-08-26T14:01:29.653Z,14.58
2022-08-26T14:03:56.665Z,14.39
2022-08-26T14:06:24.657Z,14.40
2022-08-26T14:08:51.310Z,14.37
2022-08-26T14:11:18.103Z,14.55
2022-08-26T14:13:44.806Z,14.35
2022-08-26T14:16:21.427Z,14.44
2022-08-26T14:18:50.851Z,14.54
2022-08-26T14:21:17.921Z,14.70
2022-08-26T14:23:44.630Z,14.43
2022-08-26T14:26:21.214Z,14.55
2022-08-26T14:28:59.086Z,14.51
2022-08-26T14:31:28.530Z,14.67
2022-08-26T14:33:59.253Z,14.57
2022-08-26T14:36:30.856Z,14.72
2022-08-26T14:39:01.669Z,14.71
2022-08-26T14:41:31.041Z,14.35
2022-08-26T14:44:07.483Z,14.58
2022-08-26T14:46:44.039Z,14.29
2022-08-26T14:49:11.794Z,14.80
2022-08-26T14:51:40.453Z,14.80
2022-08-26T14:54:11.537Z,14.82
2022-08-26T14:56:42.151Z,14.75
2022-08-26T14:59:09.742Z,14.57
2022-08-26T15:01:36.823Z,14.57
2022-08-26T15:04:03.646Z,14.85
2022-08-26T15:06:31.318Z,15.12
2022-08-26T15:08:59.208Z,15.14
2022-08-26T15:11:26.312Z,15.34
2022-08-26T15:13:52.944Z,15.60
2022-08-26T15:16:20.443Z,15.70
2022-08-26T15:18:47.627Z,15.48
2022-08-26T15:21:14.177Z,15.47
2022-08-26T15:23:41.155Z,15.57
2022-08-26T15:26:15.268Z,15.76
2022-08-26T15:28:41.979Z,15.75
2022-08-26T15:31:09.048Z,15.86
2022-08-26T15:33:37.123Z,15.97
2022-08-26T15:36:05.819Z,15.78
2022-08-26T15:38:34.837Z,15.83
2022-08-26T15:41:03.688Z,16.06
2022-08-26T15:43:30.460Z,16.58
2022-08-26T15:45:57.547Z,16.60
2022-08-26T15:48:24.681Z,16.86
2022-08-26T15:50:54.491Z,16.94
2022-08-26T15:53:22.084Z,17.18
2022-08-26T15:55:49.514Z,17.20
2022-08-26T15:58:16.693Z,17.48
2022-08-26T16:00:44.298Z,17.62
2022-08-26T16:03:11.444Z,17.95
2022-08-26T16:05:39.878Z,18.19
2022-08-26T16:08:07.758Z,18.20
2022-08-26T16:10:37.736Z,18.27
2022-08-26T16:13:04.872Z,18.50
2022-08-26T16:15:32.821Z,18.64
2022-08-26T16:18:01.758Z,18.72
2022-08-26T16:20:29.193Z,19.23
2022-08-26T16:22:55.899Z,19.63
2022-08-26T16:25:22.633Z,19.89
2022-08-26T16:27:51.260Z,20.09
2022-08-26T16:30:19.516Z,20.58
2022-08-26T16:32:47.256Z,20.94
2022-08-26T16:35:15.783Z,21.23
2022-08-26T16:37:42.954Z,21.69
2022-08-26T16:40:10.523Z,22.08
2022-08-26T16:42:37.697Z,22.42
2022-08-26T16:45:05.780Z,22.69
2022-08-26T16:47:36.354Z,22.98
2022-08-26T16:50:05.944Z,23.52
2022-08-26T16:52:32.686Z,23.88
2022-08-26T16:54:59.468Z,24.02
2022-08-26T16:57:26.028Z,24.28
2022-08-26T16:59:52.651Z,24.57
2022-08-26T17:02:19.389Z,24.85
2022-08-26T17:04:47.142Z,25.29
2022-08-26T17:07:17.007Z,26.07
2022-08-26T19:42:01.343Z,52.79
2022-08-26T19:44:46.736Z,52.82
2022-08-26T19:47:14.645Z,52.77
2022-08-26T19:49:41.664Z,52.92
2022-08-26T19:52:10.553Z,53.54
2022-08-26T19:54:39.090Z,53.76
2022-08-26T19:57:06.106Z,54.50
2022-08-26T19:59:35.640Z,54.72
2022-08-26T20:02:08.533Z,54.76
2022-08-26T20:04:38.850Z,55.11
2022-08-26T20:07:06.316Z,55.51
2022-08-26T20:09:33.669Z,55.97
2022-08-26T20:12:02.297Z,55.73
2022-08-26T20:14:29.604Z,56.16
2022-08-26T20:16:56.690Z,56.17
2022-08-26T20:19:42.343Z,55.89
2022-08-26T20:22:10.013Z,56.17
2022-08-26T20:24:37.205Z,56.29
2022-08-26T20:27:07.702Z,56.95
2022-08-26T20:29:35.859Z,57.39
2022-08-26T20:32:05.472Z,57.29
2022-08-26T20:34:33.438Z,57.99
2022-08-26T20:37:00.519Z,58.15
2022-08-26T20:39:30.781Z,58.47
2022-08-26T20:41:58.178Z,58.55
2022-08-26T20:44:25.234Z,58.48
2022-08-26T20:46:52.607Z,58.88
2022-08-26T20:49:19.645Z,59.76
2022-08-26T20:51:51.011Z,59.54
2022-08-26T20:54:23.939Z,60.04
2022-08-26T20:56:54.295Z,60.21
2022-08-26T20:59:21.434Z,60.35
2022-08-26T21:01:48.846Z,60.26
2022-08-26T21:04:20.517Z,60.00
2022-08-26T21:06:52.818Z,60.01
2022-08-26T21:09:22.145Z,60.23
2022-08-26T21:11:49.556Z,60.24
2022-08-26T21:14:17.365Z,60.92
2022-08-26T21:16:45.814Z,60.74
2022-08-26T21:19:15.051Z,61.26
2022-08-26T21:21:42.443Z,61.79
2022-08-26T21:24:09.210Z,61.50
2022-08-26T21:26:36.501Z,61.62
2022-08-26T21:29:04.723Z,62.02
2022-08-26T21:31:31.506Z,62.15
2022-08-26T21:33:58.737Z,62.22
2022-08-26T21:36:26.029Z,62.13
2022-08-26T21:38:56.216Z,62.28
2022-08-26T21:41:23.479Z,62.55
2022-08-26T21:43:53.321Z,62.01
2022-08-26T21:46:23.104Z,62.26
2022-08-26T21:48:59.591Z,63.06
2022-08-26T21:51:29.963Z,63.09
2022-08-26T21:53:58.189Z,63.05
2022-08-26T21:56:27.354Z,62.92
2022-08-26T21:58:55.593Z,63.36
2022-08-26T22:01:26.328Z,63.24
2022-08-26T22:03:53.915Z,63.15
2022-08-26T22:06:23.800Z,63.16
2022-08-26T22:08:51.692Z,62.88
2022-08-26T22:11:19.513Z,62.79
2022-08-26T22:13:48.114Z,62.98
2022-08-26T22:16:15.171Z,63.28
2022-08-26T22:18:43.185Z,63.36
2022-08-26T22:21:15.421Z,63.36
2022-08-26T22:23:43.173Z,63.92
2022-08-26T22:26:11.501Z,64.82
2022-08-26T22:28:38.846Z,65.20
2022-08-26T22:31:08.068Z,65.34
2022-08-26T22:33:34.876Z,65.44
2022-08-26T22:36:01.789Z,66.02
2022-08-26T22:38:28.529Z,66.76
2022-08-26T22:40:56.460Z,66.92
2022-08-26T22:43:24.609Z,66.70
2022-08-26T22:45:52.477Z,67.47
2022-08-26T22:48:22.147Z,67.83
2022-08-26T22:50:50.486Z,68.02
2022-08-26T22:53:17.889Z,67.60
2022-08-26T22:55:45.024Z,67.30
2022-08-26T22:58:14.037Z,67.40
2022-08-26T23:00:42.052Z,67.13
2022-08-26T23:03:08.957Z,66.94
2022-08-26T23:05:35.920Z,66.83
2022-08-26T23:08:03.084Z,66.66
2022-08-26T23:10:30.000Z,66.89
2022-08-26T23:12:57.358Z,67.13
2022-08-26T23:15:24.203Z,67.73
2022-08-26T23:17:57.029Z,67.83
2022-08-26T23:20:27.437Z,67.98
2022-08-26T23:22:55.550Z,68.30
2022-08-26T23:25:23.032Z,68.54
2022-08-26T23:27:51.958Z,68.59
2022-08-26T23:30:21.949Z,69.01
2022-08-26T23:32:49.422Z,69.26
2022-08-26T23:35:19.574Z,69.24
2022-08-26T23:37:50.763Z,69.75
2022-08-26T23:40:31.983Z,69.93
2022-08-26T23:43:02.884Z,69.91
2022-08-26T23:45:31.343Z,70.62
2022-08-26T23:47:58.958Z,70.86
2022-08-26T23:50:48.369Z,71.17
2022-08-26T23:53:20.420Z,70.99
2022-08-26T23:55:49.508Z,71.33
2022-08-26T23:58:18.104Z,71.69
